createdAt,value
2022-12-27T00:02:06.483Z,2.20
2022-12-27T00:07:08.242Z,2.00
2022-12-27T00:12:10.786Z,2.30
2022-12-27T00:17:12.395Z,2.27
2022-12-27T00:22:13.896Z,2.40
2022-12-27T00:27:15.590Z,2.07
2022-12-27T00:32:17.089Z,2.50
2022-12-27T00:37:18.691Z,2.47
2022-12-27T00:42:20.195Z,2.37
2022-12-27T00:47:21.880Z,2.63
2022-12-27T00:52:23.368Z,2.30
2022-12-27T00:57:24.932Z,2.33
2022-12-27T01:02:26.452Z,2.40
2022-12-27T01:07:28.183Z,2.53
2022-12-27T01:12:29.671Z,2.37
2022-12-27T01:17:31.238Z,2.63
2022-12-27T01:22:32.741Z,2.30
2022-12-27T01:27:34.427Z,2.23
2022-12-27T01:32:35.942Z,2.70
2022-12-27T01:37:37.495Z,2.07
2022-12-27T01:42:55.652Z,2.03
2022-12-27T01:48:21.473Z,2.30
2022-12-27T01:53:33.674Z,2.20
2022-12-27T01:58:41.265Z,1.93
2022-12-27T02:03:47.133Z,2.00
2022-12-27T02:08:55.549Z,1.77
2022-12-27T02:13:57.238Z,1.97
2022-12-27T02:18:58.782Z,1.80
2022-12-27T02:24:14.347Z,1.80
2022-12-27T02:29:21.934Z,2.30
2022-12-27T02:34:27.566Z,2.03
2022-12-27T02:39:30.813Z,2.10
2022-12-27T02:44:50.958Z,2.37
2022-12-27T02:50:11.295Z,2.00
2022-12-27T02:55:27.467Z,1.83
2022-12-27T03:00:48.720Z,1.90
2022-12-27T03:06:14.791Z,2.20
2022-12-27T03:11:35.064Z,2.47
2022-12-27T03:16:55.545Z,2.10
2022-12-27T03:22:15.728Z,1.87
2022-12-27T03:27:21.621Z,2.10
2022-12-27T03:32:42.236Z,2.07
2022-12-27T03:38:03.469Z,2.10
2022-12-27T03:43:12.655Z,2.20
2022-12-27T03:48:18.038Z,2.77
2022-12-27T03:53:25.745Z,2.10
2022-12-27T03:58:27.446Z,2.17
2022-12-27T04:03:29.092Z,1.90
2022-12-27T04:08:49.541Z,1.90
2022-12-27T04:14:10.898Z,1.90
2022-12-27T04:19:31.121Z,2.00
2022-12-27T04:24:51.300Z,2.20
2022-12-27T04:30:11.639Z,1.90
2022-12-27T04:35:13.192Z,1.97
2022-12-27T04:40:33.253Z,2.10
2022-12-27T04:45:53.557Z,1.77
2022-12-27T04:51:13.891Z,1.93
2022-12-27T04:56:15.423Z,2.10
2022-12-27T05:01:35.806Z,2.07
2022-12-27T05:06:37.391Z,2.30
2022-12-27T05:11:57.550Z,2.30
2022-12-27T05:16:59.048Z,2.00
2022-12-27T05:22:19.230Z,1.83
2022-12-27T05:27:20.835Z,1.70
2022-12-27T05:32:22.379Z,1.80
2022-12-27T05:37:23.951Z,2.10
2022-12-27T05:42:26.558Z,2.10
2022-12-27T05:47:28.161Z,2.03
2022-12-27T05:52:30.563Z,1.93
2022-12-27T05:57:33.118Z,1.80
2022-12-27T06:02:34.828Z,2.10
2022-12-27T06:07:38.139Z,1.80
2022-12-27T06:12:39.681Z,2.20
2022-12-27T06:17:41.234Z,1.80
2022-12-27T06:22:43.087Z,2.10
2022-12-27T06:27:44.618Z,1.80
2022-12-27T06:32:46.141Z,1.90
2022-12-27T06:37:48.135Z,1.70
2022-12-27T06:42:49.609Z,2.00
2022-12-27T06:47:51.175Z,2.00
2022-12-27T06:52:53.122Z,1.80
2022-12-27T06:57:54.715Z,2.10
2022-12-27T07:02:56.361Z,1.80
2022-12-27T07:07:58.071Z,1.63
2022-12-27T07:12:59.592Z,1.77
2022-12-27T07:18:01.279Z,2.00
2022-12-27T07:23:03.149Z,2.10
2022-12-27T07:28:05.120Z,1.70
2022-12-27T07:33:06.606Z,1.90
2022-12-27T07:38:08.211Z,2.03
2022-12-27T07:43:09.713Z,1.70
2022-12-27T07:48:11.279Z,1.90
2022-12-27T07:53:12.782Z,2.20
2022-12-27T07:58:14.570Z,2.20
2022-12-27T08:03:16.997Z,2.35
2022-12-27T08:08:20.970Z,1.83
2022-12-27T08:13:23.499Z,1.70
2022-12-27T08:18:25.184Z,1.83
2022-12-27T08:23:26.713Z,2.17
2022-12-27T08:28:31.448Z,1.90
2022-12-27T08:33:33.019Z,1.87
2022-12-27T08:38:35.767Z,1.90
2022-12-27T08:43:37.274Z,1.80
2022-12-27T08:48:38.881Z,1.90
2022-12-27T08:53:40.432Z,2.00
2022-12-27T08:58:41.969Z,2.20
2022-12-27T09:03:43.774Z,1.70
2022-12-27T09:08:46.393Z,1.90
2022-12-27T09:13:47.930Z,1.83
2022-12-27T09:18:52.866Z,2.00
2022-12-27T09:23:55.213Z,1.70
2022-12-27T09:28:58.484Z,1.87
2022-12-27T09:34:00.135Z,1.90
2022-12-27T09:39:01.809Z,2.10
2022-12-27T09:44:13.488Z,2.27
2022-12-27T09:49:30.919Z,2.10
2022-12-27T09:54:44.489Z,1.70
2022-12-27T09:59:49.130Z,1.70
2022-12-27T10:10:54.124Z,2.00
2022-12-27T10:16:09.757Z,1.70
2022-12-27T10:21:21.659Z,1.87
2022-12-27T10:26:23.472Z,1.77
2022-12-27T10:31:25.479Z,1.47
2022-12-27T10:36:28.540Z,1.60
2022-12-27T10:41:34.001Z,1.70
2022-12-27T10:46:35.692Z,1.47
2022-12-27T10:51:41.298Z,1.60
2022-12-27T10:56:44.292Z,1.40
2022-12-27T11:01:48.066Z,1.53
2022-12-27T11:07:17.725Z,1.40
2022-12-27T11:12:19.262Z,1.40
2022-12-27T11:17:24.513Z,1.50
2022-12-27T11:22:26.760Z,1.20
2022-12-27T11:27:29.493Z,1.57
2022-12-27T11:32:31.351Z,1.20
2022-12-27T11:37:33.090Z,1.40
2022-12-27T11:42:42.965Z,1.10
2022-12-27T11:47:47.596Z,1.10
2022-12-27T11:53:21.227Z,1.30
2022-12-27T11:58:38.031Z,1.30
2022-12-27T12:04:06.626Z,1.20
2022-12-27T12:09:08.079Z,1.03
2022-12-27T12:14:48.591Z,1.53
2022-12-27T12:20:34.598Z,1.30
2022-12-27T12:26:02.457Z,1.40
2022-12-27T12:31:35.099Z,1.57
2022-12-27T12:37:05.015Z,1.33
2022-12-27T12:42:13.955Z,1.20
2022-12-27T12:47:27.498Z,1.30
2022-12-27T12:52:45.750Z,1.63
2022-12-27T12:58:08.639Z,1.50
2022-12-27T13:03:28.588Z,1.50
2022-12-27T13:08:39.947Z,1.53
2022-12-27T13:14:05.605Z,1.70
2022-12-27T13:19:41.759Z,1.60
2022-12-27T13:25:03.836Z,1.43
2022-12-27T13:30:16.144Z,1.40
2022-12-27T13:35:51.958Z,1.60
2022-12-27T13:41:07.033Z,1.27
2022-12-27T13:46:47.773Z,1.43
2022-12-27T13:51:53.052Z,1.50
2022-12-27T13:57:23.022Z,1.80
2022-12-27T14:02:30.742Z,1.50
2022-12-27T14:07:49.529Z,1.50
2022-12-27T14:12:57.177Z,1.33
2022-12-27T14:18:09.747Z,1.60
2022-12-27T14:23:36.038Z,1.70
2022-12-27T14:29:05.554Z,1.90
2022-12-27T14:34:37.671Z,1.47
2022-12-27T14:39:57.737Z,1.90
2022-12-27T14:45:36.764Z,1.63
2022-12-27T14:51:02.601Z,1.60
2022-12-27T14:56:33.891Z,1.60
2022-12-27T15:01:39.561Z,1.70
2022-12-27T15:07:00.301Z,2.00
2022-12-27T15:12:05.011Z,1.77
2022-12-27T15:17:38.028Z,2.13
2022-12-27T15:22:39.493Z,1.83
2022-12-27T15:27:53.380Z,1.70
2022-12-27T15:33:16.183Z,1.67
2022-12-27T15:38:26.951Z,1.93
2022-12-27T15:43:34.421Z,2.07
2022-12-27T15:48:51.568Z,1.60
2022-12-27T15:54:07.322Z,1.77
2022-12-27T15:59:46.594Z,1.83
2022-12-27T16:04:53.666Z,1.97
2022-12-27T16:09:55.390Z,1.67
2022-12-27T16:15:35.525Z,2.00
2022-12-27T16:20:38.391Z,1.70
2022-12-27T16:25:41.168Z,1.70
2022-12-27T16:30:49.490Z,2.50
2022-12-27T16:36:04.631Z,1.90
2022-12-27T16:41:35.604Z,1.90
2022-12-27T16:46:55.841Z,1.80
2022-12-27T16:52:06.553Z,1.80
2022-12-27T16:57:26.472Z,1.80
2022-12-27T17:02:45.724Z,2.10
2022-12-27T17:07:53.877Z,1.87
2022-12-27T17:13:04.314Z,2.00
2022-12-27T17:18:29.636Z,2.10
2022-12-27T17:23:31.397Z,2.03
2022-12-27T17:28:41.387Z,2.00
2022-12-27T17:33:57.384Z,2.17
2022-12-27T17:39:06.665Z,1.97
2022-12-27T17:44:40.699Z,2.07
2022-12-27T17:49:42.503Z,2.10
2022-12-27T17:55:02.824Z,2.40
2022-12-27T18:00:06.461Z,2.40
2022-12-27T18:05:14.760Z,2.00
2022-12-27T18:10:26.837Z,2.63
2022-12-27T18:15:30.629Z,2.50
2022-12-27T18:20:37.967Z,2.30
2022-12-27T18:25:49.902Z,2.00
2022-12-27T18:31:18.750Z,2.10
2022-12-27T18:37:00.111Z,2.33
2022-12-27T18:42:12.235Z,1.87
2022-12-27T18:47:26.850Z,2.53
2022-12-27T18:52:35.001Z,2.47
2022-12-27T18:57:37.053Z,2.57
2022-12-27T19:02:38.722Z,2.67
2022-12-27T19:07:40.572Z,2.30
2022-12-27T19:12:42.850Z,2.50
2022-12-27T19:17:47.567Z,2.73
2022-12-27T19:22:55.242Z,2.70
2022-12-27T19:27:57.456Z,2.40
2022-12-27T19:33:00.204Z,2.87
2022-12-27T19:38:02.394Z,2.60
2022-12-27T19:43:03.901Z,2.50
2022-12-27T19:48:06.763Z,2.50
2022-12-27T19:53:11.341Z,2.40
2022-12-27T19:58:25.143Z,2.60
2022-12-27T20:03:27.081Z,2.63
2022-12-27T20:08:50.340Z,2.30
2022-12-27T20:13:52.038Z,2.70
2022-12-27T20:18:53.701Z,2.43
2022-12-27T20:23:55.302Z,2.63
2022-12-27T20:28:58.850Z,2.90
2022-12-27T20:34:00.364Z,2.70
2022-12-27T20:39:02.034Z,2.70
2022-12-27T20:44:03.824Z,2.77
2022-12-27T20:49:06.912Z,2.80
2022-12-27T20:54:10.705Z,2.80
2022-12-27T20:59:12.221Z,2.63
2022-12-27T21:04:13.734Z,2.50
2022-12-27T21:09:15.246Z,2.40
2022-12-27T21:14:16.756Z,2.37
2022-12-27T21:19:18.954Z,2.00
2022-12-27T21:24:20.490Z,2.30
2022-12-27T21:29:22.372Z,2.10
2022-12-27T21:34:23.907Z,2.20
2022-12-27T21:39:25.467Z,2.10
2022-12-27T21:44:27.282Z,2.20
2022-12-27T21:49:28.852Z,2.37
2022-12-27T21:54:30.409Z,2.20
2022-12-27T21:59:31.906Z,2.23
2022-12-27T22:04:33.470Z,2.10
2022-12-27T22:09:36.905Z,2.17
2022-12-27T22:14:38.526Z,2.00
2022-12-27T22:19:41.070Z,2.20
2022-12-27T22:24:42.618Z,1.97
2022-12-27T22:29:44.138Z,2.10
2022-12-27T22:34:45.683Z,1.83
2022-12-27T22:39:47.242Z,2.30
2022-12-27T22:44:48.804Z,2.47
2022-12-27T22:49:50.358Z,2.20
2022-12-27T22:55:04.478Z,2.13
2022-12-27T23:00:12.493Z,2.10
2022-12-27T23:05:14.626Z,1.83
2022-12-27T23:10:16.410Z,1.90
2022-12-27T23:15:18.608Z,2.00
2022-12-27T23:20:20.262Z,1.97
2022-12-27T23:25:21.888Z,1.90
2022-12-27T23:30:23.453Z,2.07
2022-12-27T23:35:25.065Z,2.23
2022-12-27T23:40:27.104Z,1.80
2022-12-27T23:45:28.654Z,1.90
2022-12-27T23:50:30.288Z,1.83
2022-12-27T23:55:31.916Z,1.90
